Time;durP1;ratioP1;P1;durP2;ratioP2;P2;SDS_P1;SDS_P2;PMS_P1;PMS_P2;Temp;Humidity;BMP_temperature;BMP_pressure;BME280_temperature;BME280_humidity;BME280_pressure;Samples;Min_cycle;Max_cycle;Signal;HPM_P1;HPM_P2
2022/02/18 00:02:26;;;;;;;12.48;2.40;;;15.20;65.00;;;;;;4209715;28;20082;-59
2022/02/18 00:04:48;;;;;;;8.70;1.73;;;15.20;65.20;;;;;;4194086;28;20060;-59
2022/02/18 00:07:10;;;;;;;13.00;2.22;;;15.20;65.30;;;;;;4192232;28;20044;-60
2022/02/18 00:09:34;;;;;;;11.80;2.53;;;15.20;66.20;;;;;;4193449;28;20064;-59
2022/02/18 00:11:56;;;;;;;11.93;2.20;;;15.20;65.30;;;;;;4194371;28;20052;-59
2022/02/18 00:14:19;;;;;;;10.18;2.35;;;15.20;65.30;;;;;;4194295;28;20115;-59
2022/02/18 00:16:42;;;;;;;11.00;2.05;;;15.10;65.30;;;;;;4212282;27;20055;-59
2022/02/18 00:19:04;;;;;;;10.73;2.17;;;15.10;65.40;;;;;;4227779;27;20139;-59
2022/02/18 00:21:27;;;;;;;14.80;2.65;;;15.10;65.40;;;;;;4227502;27;20386;-59
2022/02/18 00:23:50;;;;;;;12.57;2.63;;;15.10;65.50;;;;;;4227575;28;20040;-59
2022/02/18 00:26:14;;;;;;;13.20;2.55;;;15.10;65.50;;;;;;4227407;28;20046;-59
2022/02/18 00:28:36;;;;;;;12.57;2.78;;;15.10;65.50;;;;;;4227639;27;20075;-59
2022/02/18 00:31:00;;;;;;;10.43;2.05;;;15.00;65.60;;;;;;4223501;27;20117;-59
2022/02/18 00:33:24;;;;;;;17.75;2.38;;;15.00;65.70;;;;;;4227553;27;20049;-59
2022/02/18 00:35:46;;;;;;;16.45;2.60;;;15.00;65.90;;;;;;4227484;27;20079;-59
2022/02/18 00:38:09;;;;;;;13.35;2.95;;;15.00;65.90;;;;;;4227641;27;20050;-59
2022/02/18 00:40:32;;;;;;;14.52;2.67;;;15.00;66.00;;;;;;4227563;27;20044;-59
2022/02/18 00:42:55;;;;;;;9.68;2.25;;;15.00;66.10;;;;;;4227443;27;20130;-59
2022/02/18 00:45:17;;;;;;;8.63;2.03;;;15.00;66.60;;;;;;4218346;28;20066;-59
2022/02/18 00:47:41;;;;;;;11.63;2.45;;;15.00;66.60;;;;;;4208930;28;20140;-59
2022/02/18 00:50:06;;;;;;;18.33;2.88;;;15.00;66.60;;;;;;4209240;28;20044;-60
2022/02/18 00:52:28;;;;;;;15.48;2.45;;;15.10;66.50;;;;;;4210155;28;20097;-59
2022/02/18 00:54:51;;;;;;;8.93;2.22;;;15.20;66.40;;;;;;4210512;28;20400;-59
2022/02/18 00:57:13;;;;;;;15.57;2.63;;;15.20;66.30;;;;;;4210191;28;20044;-59
2022/02/18 00:59:35;;;;;;;11.93;2.53;;;15.20;66.10;;;;;;4221319;27;20047;-60
2022/02/18 01:01:57;;;;;;;10.00;2.33;;;15.30;66.10;;;;;;4227025;27;20047;-59
2022/02/18 01:04:19;;;;;;;9.40;2.10;;;15.30;66.90;;;;;;4225820;28;20053;-59
2022/02/18 01:06:45;;;;;;;11.05;2.30;;;15.30;66.00;;;;;;4227048;27;20154;-59
2022/02/18 01:09:07;;;;;;;15.10;2.58;;;15.30;65.90;;;;;;4225582;28;20042;-59
2022/02/18 01:11:29;;;;;;;10.50;2.10;;;15.30;65.80;;;;;;4226004;28;20124;-59
2022/02/18 01:13:52;;;;;;;12.55;1.95;;;15.30;65.80;;;;;;4226295;28;20448;-60
2022/02/18 01:16:16;;;;;;;11.95;2.40;;;15.30;65.80;;;;;;4226835;27;20050;-59
2022/02/18 01:18:38;;;;;;;14.05;2.25;;;15.30;65.70;;;;;;4225716;28;20102;-60
2022/02/18 01:21:00;;;;;;;10.57;2.67;;;15.30;65.60;;;;;;4227033;27;20506;-60
2022/02/18 01:23:24;;;;;;;13.05;2.15;;;15.30;65.60;;;;;;4225279;28;20422;-60
2022/02/18 01:25:46;;;;;;;9.30;1.85;;;15.30;65.60;;;;;;4225326;27;20050;-60
2022/02/18 01:28:08;;;;;;;12.95;2.58;;;15.30;65.60;;;;;;4193169;28;20055;-59
2022/02/18 01:30:32;;;;;;;10.43;2.05;;;15.30;65.60;;;;;;4176578;28;20063;-60
2022/02/18 01:32:55;;;;;;;8.80;1.95;;;15.30;65.70;;;;;;4191814;28;20511;-59
2022/02/18 01:35:17;;;;;;;9.82;1.75;;;15.30;65.70;;;;;;4191597;28;20812;-59
2022/02/18 01:37:39;;;;;;;9.05;2.40;;;15.40;65.80;;;;;;4193106;28;20113;-59
2022/02/18 01:40:04;;;;;;;9.18;1.60;;;15.40;65.80;;;;;;4198976;28;20058;-59
2022/02/18 01:42:29;;;;;;;11.60;1.65;;;15.40;65.60;;;;;;4226633;28;20132;-59
2022/02/18 01:44:51;;;;;;;11.20;2.15;;;15.40;65.50;;;;;;4226488;28;20043;-59
2022/02/18 01:47:22;;;;;;;9.23;1.92;;;15.40;65.60;;;;;;4210408;28;20144;-60
2022/02/18 01:49:45;;;;;;;7.97;2.00;;;15.40;65.60;;;;;;4208218;28;20431;-59
2022/02/18 01:52:08;;;;;;;6.53;2.15;;;15.40;65.70;;;;;;4209780;28;20055;-59
2022/02/18 01:54:30;;;;;;;5.72;1.50;;;15.40;65.60;;;;;;4217234;28;20101;-59
2022/02/18 01:56:54;;;;;;;8.40;2.00;;;15.40;65.70;;;;;;4226179;28;20397;-59
2022/02/18 01:59:16;;;;;;;10.55;1.98;;;15.30;65.80;;;;;;4226040;27;20082;-59
2022/02/18 02:01:38;;;;;;;7.20;1.40;;;15.40;65.90;;;;;;4209864;28;20056;-59
2022/02/18 02:04:00;;;;;;;9.18;1.70;;;15.30;65.90;;;;;;4224257;28;20572;-59
2022/02/18 02:06:23;;;;;;;6.55;1.63;;;15.30;66.00;;;;;;4216863;28;20048;-60
2022/02/18 02:08:45;;;;;;;8.32;1.70;;;15.30;65.90;;;;;;4207726;28;20546;-60
2022/02/18 02:11:08;;;;;;;9.00;1.80;;;15.30;65.90;;;;;;4207616;28;20135;-59
2022/02/18 02:13:34;;;;;;;11.07;1.92;;;15.30;65.90;;;;;;4191284;28;20056;-59
2022/02/18 02:16:01;;;;;;;11.40;2.15;;;15.40;65.90;;;;;;4190758;28;20500;-58
2022/02/18 02:18:24;;;;;;;9.65;1.85;;;15.40;66.00;;;;;;4199872;28;20495;-59
2022/02/18 02:20:46;;;;;;;11.98;2.15;;;15.40;66.00;;;;;;4224693;28;20075;-59
2022/02/18 02:23:10;;;;;;;9.85;2.45;;;15.50;66.00;;;;;;4224786;28;20046;-59
2022/02/18 02:25:36;;;;;;;7.85;1.58;;;15.50;65.90;;;;;;4217467;28;20105;-59
2022/02/18 02:28:19;;;;;;;10.80;1.95;;;15.60;65.70;;;;;;4190714;28;20127;-59
2022/02/18 02:30:44;;;;;;;9.82;2.03;;;15.60;65.40;;;;;;4189788;28;20056;-59
2022/02/18 02:33:07;;;;;;;9.75;2.92;;;15.70;65.20;;;;;;4204758;28;20058;-60
2022/02/18 02:35:33;;;;;;;8.23;1.70;;;15.70;64.90;;;;;;4207685;28;20101;-59
2022/02/18 02:37:56;;;;;;;8.68;1.80;;;15.80;64.80;;;;;;4225509;27;20085;-59
2022/02/18 02:40:20;;;;;;;6.75;2.03;;;15.80;64.80;;;;;;4224461;28;20079;-59
2022/02/18 02:42:43;;;;;;;6.50;1.60;;;15.70;64.80;;;;;;4224108;28;20063;-60
2022/02/18 02:45:06;;;;;;;10.32;2.20;;;15.70;64.70;;;;;;4190932;28;20048;-59
2022/02/18 02:47:28;;;;;;;8.65;2.08;;;15.80;64.80;;;;;;4190795;28;20047;-59
2022/02/18 02:50:00;;;;;;;7.40;1.90;;;15.70;64.80;;;;;;4190730;28;20061;-59
2022/02/18 02:52:23;;;;;;;7.40;1.67;;;15.80;65.00;;;;;;4195454;28;20056;-60
2022/02/18 02:54:54;;;;;;;10.10;1.90;;;15.70;65.00;;;;;;4223720;28;20483;-59
2022/02/18 02:57:18;;;;;;;8.15;2.22;;;15.70;65.20;;;;;;4224195;28;20044;-60
2022/02/18 02:59:47;;;;;;;8.43;2.13;;;15.70;65.20;;;;;;4223593;28;20494;-59
2022/02/18 03:02:10;;;;;;;9.32;1.83;;;15.60;66.20;;;;;;4224383;28;20515;-59
2022/02/18 03:04:35;;;;;;;10.93;1.83;;;15.60;65.40;;;;;;4209272;28;20411;-59
2022/02/18 03:06:58;;;;;;;8.55;1.70;;;15.60;65.60;;;;;;4219172;28;20127;-59
2022/02/18 03:09:47;;;;;;;7.60;1.65;;;15.50;65.60;;;;;;4190744;28;20106;-59
2022/02/18 03:12:11;;;;;;;6.45;2.03;;;15.60;65.90;;;;;;4199641;28;20443;-59
2022/02/18 03:14:43;;;;;;;;;;;15.60;65.70;;;;;;4220782;28;20557;-57
2022/02/18 03:17:11;;;;;;;7.07;2.10;;;15.60;65.50;;;;;;4209721;28;19924;-59
2022/02/18 03:19:34;;;;;;;10.48;1.83;;;15.70;65.50;;;;;;4210627;28;20105;-59
2022/02/18 03:21:58;;;;;;;6.28;1.45;;;15.70;65.30;;;;;;4210592;28;20083;-59
2022/02/18 03:24:21;;;;;;;4.63;1.30;;;15.70;65.30;;;;;;4210698;28;20036;-59
2022/02/18 03:26:46;;;;;;;7.53;2.10;;;15.70;65.30;;;;;;4211053;28;20059;-59
2022/02/18 03:29:08;;;;;;;9.93;1.88;;;15.60;65.40;;;;;;4210537;28;20078;-60
2022/02/18 03:31:58;;;;;;;8.45;1.83;;;15.60;65.60;;;;;;4211697;28;20044;-59
2022/02/18 03:34:22;;;;;;;5.00;1.35;;;15.60;65.70;;;;;;4210093;28;20055;-59
2022/02/18 03:36:45;;;;;;;6.10;1.40;;;15.60;65.70;;;;;;4210345;28;20480;-59
2022/02/18 03:39:09;;;;;;;6.90;1.33;;;15.60;66.70;;;;;;4212637;28;20052;-60
2022/02/18 03:41:34;;;;;;;3.20;1.88;;;15.60;65.70;;;;;;4192176;28;20086;-59
2022/02/18 03:43:56;;;;;;;5.65;1.92;;;15.60;65.80;;;;;;4207989;28;20114;-59
2022/02/18 03:46:23;;;;;;;10.15;2.22;;;15.60;65.90;;;;;;4193215;28;20048;-60
2022/02/18 03:48:49;;;;;;;3.28;1.30;;;15.60;66.00;;;;;;4179360;28;20492;-60
2022/02/18 03:51:12;;;;;;;6.70;1.98;;;15.60;66.10;;;;;;4179257;28;20041;-60
2022/02/18 03:53:34;;;;;;;7.32;2.30;;;15.50;66.10;;;;;;4204461;28;20482;-59
2022/02/18 03:56:07;;;;;;;8.77;2.30;;;15.50;66.30;;;;;;4201823;28;20068;-60
2022/02/18 03:58:33;;;;;;;6.75;1.55;;;15.50;66.50;;;;;;4208795;28;20060;-59
2022/02/18 04:00:55;;;;;;;11.20;2.30;;;15.60;66.30;;;;;;4196208;28;20475;-60
2022/02/18 04:03:18;;;;;;;8.95;1.60;;;15.70;66.00;;;;;;4208779;28;20055;-60
2022/02/18 04:06:00;;;;;;;8.32;1.52;;;15.70;65.80;;;;;;4210465;28;20051;-60
2022/02/18 04:08:29;;;;;;;9.93;1.95;;;15.80;65.70;;;;;;4220189;28;20077;-60
2022/02/18 04:10:51;;;;;;;9.40;2.38;;;15.80;65.40;;;;;;4189949;28;20471;-60
2022/02/18 04:13:18;;;;;;;8.50;1.73;;;15.90;65.30;;;;;;4176301;28;21028;-59
2022/02/18 04:15:40;;;;;;;5.22;1.40;;;15.80;65.00;;;;;;4190462;28;20060;-59
2022/02/18 04:18:02;;;;;;;11.80;1.70;;;15.90;65.00;;;;;;4176521;28;20126;-60
2022/02/18 04:20:32;;;;;;;10.90;2.10;;;15.90;66.00;;;;;;4176418;28;20076;-59
2022/02/18 04:23:30;;;;;;;9.73;2.08;;;15.90;66.20;;;;;;4225078;28;20047;-59
2022/02/18 04:25:53;;;;;;;9.63;1.80;;;15.90;65.40;;;;;;4226418;27;20051;-59
2022/02/18 04:28:17;;;;;;;5.28;1.10;;;15.90;65.50;;;;;;4225515;28;20127;-59
2022/02/18 04:30:41;;;;;;;4.43;1.00;;;15.80;65.40;;;;;;4227667;27;20062;-59
2022/02/18 04:33:03;;;;;;;6.72;1.92;;;15.80;65.50;;;;;;4227717;27;20047;-59
2022/02/18 04:35:25;;;;;;;8.88;1.50;;;15.80;65.70;;;;;;4220994;27;20396;-59
2022/02/18 04:37:47;;;;;;;2.47;0.90;;;15.80;65.70;;;;;;4210549;28;20051;-59
2022/02/18 04:40:13;;;;;;;7.28;1.48;;;15.80;65.80;;;;;;4210568;28;20058;-59
2022/02/18 04:42:35;;;;;;;5.22;1.42;;;15.80;65.90;;;;;;4210058;28;20132;-60
2022/02/18 04:44:58;;;;;;;6.13;1.48;;;15.80;65.90;;;;;;4210498;28;20131;-59
2022/02/18 04:47:21;;;;;;;4.22;1.40;;;15.90;65.70;;;;;;4210655;28;20132;-59
2022/02/18 04:49:45;;;;;;;8.77;1.55;;;15.90;65.50;;;;;;4218155;28;20052;-60
2022/02/18 04:52:08;;;;;;;4.45;1.75;;;16.00;65.30;;;;;;4227148;27;20488;-59
2022/02/18 04:54:30;;;;;;;10.38;1.95;;;16.00;65.20;;;;;;4227015;27;20127;-59
2022/02/18 04:56:53;;;;;;;4.22;1.77;;;16.00;65.00;;;;;;4227404;27;20423;-59
2022/02/18 04:59:17;;;;;;;3.63;1.23;;;15.90;65.10;;;;;;4227291;27;20436;-59
2022/02/18 05:01:39;;;;;;;6.90;1.30;;;16.00;65.30;;;;;;4227391;27;20130;-59
2022/02/18 05:04:01;;;;;;;5.85;1.30;;;16.00;65.30;;;;;;4214920;28;20051;-59
2022/02/18 05:06:23;;;;;;;9.30;1.85;;;16.00;65.20;;;;;;4210523;28;20113;-59
2022/02/18 05:08:46;;;;;;;4.72;1.30;;;16.00;65.00;;;;;;4210292;28;20048;-59
2022/02/18 05:11:08;;;;;;;6.00;1.33;;;16.00;65.00;;;;;;4210358;28;20118;-59
2022/02/18 05:13:31;;;;;;;7.05;1.20;;;16.00;65.10;;;;;;4210173;28;20136;-59
2022/02/18 05:15:53;;;;;;;5.60;2.22;;;16.00;65.30;;;;;;4223844;28;20484;-59
2022/02/18 05:18:15;;;;;;;5.90;1.38;;;15.90;65.20;;;;;;4226990;27;20085;-60
2022/02/18 05:20:38;;;;;;;5.82;1.50;;;15.90;65.30;;;;;;4227013;28;20096;-59
2022/02/18 05:23:02;;;;;;;9.10;1.85;;;15.90;65.30;;;;;;4226577;28;20122;-59
2022/02/18 05:25:24;;;;;;;7.40;1.90;;;15.90;65.50;;;;;;4226695;28;20043;-60
2022/02/18 05:27:47;;;;;;;7.63;1.75;;;15.90;65.30;;;;;;4213510;27;20055;-60
2022/02/18 05:30:11;;;;;;;6.53;1.55;;;15.90;65.30;;;;;;4209792;28;20142;-59
2022/02/18 05:32:34;;;;;;;6.60;1.73;;;15.90;65.30;;;;;;4209574;28;20412;-59
2022/02/18 05:34:55;;;;;;;9.13;1.92;;;15.90;65.30;;;;;;4193241;28;20472;-59
2022/02/18 05:37:17;;;;;;;9.55;2.70;;;15.90;65.50;;;;;;4193083;28;20727;-59
2022/02/18 05:39:39;;;;;;;8.98;1.50;;;15.90;65.40;;;;;;4192016;28;20094;-59
2022/02/18 05:42:01;;;;;;;7.97;2.00;;;16.00;65.20;;;;;;4223977;28;20048;-59
2022/02/18 05:44:30;;;;;;;7.45;1.70;;;16.00;65.00;;;;;;4226619;27;20411;-59
2022/02/18 05:46:54;;;;;;;6.93;2.03;;;16.00;65.00;;;;;;4226195;28;20122;-59
2022/02/18 05:49:16;;;;;;;10.35;2.45;;;16.00;65.00;;;;;;4225186;28;20408;-60
2022/02/18 05:51:38;;;;;;;13.27;2.20;;;16.00;65.00;;;;;;4226302;28;20494;-60
2022/02/18 05:54:01;;;;;;;6.03;1.65;;;16.00;65.20;;;;;;4226530;28;20048;-60
2022/02/18 05:56:23;;;;;;;9.10;2.67;;;16.00;65.20;;;;;;4192805;28;20055;-59
2022/02/18 05:58:46;;;;;;;11.93;2.75;;;16.00;65.20;;;;;;4192419;28;20059;-60
2022/02/18 06:01:08;;;;;;;7.88;2.55;;;16.00;65.30;;;;;;4201842;28;20048;-59
2022/02/18 06:03:31;;;;;;;10.73;2.80;;;16.00;65.20;;;;;;4209524;28;20044;-59
2022/02/18 06:05:54;;;;;;;11.23;3.25;;;16.00;65.10;;;;;;4209395;28;20052;-59
2022/02/18 06:08:15;;;;;;;15.35;2.92;;;16.00;65.10;;;;;;4210300;28;20075;-59
2022/02/18 06:10:38;;;;;;;8.10;2.50;;;16.00;65.10;;;;;;4226348;27;20409;-59
2022/02/18 06:13:00;;;;;;;9.48;2.60;;;16.00;65.20;;;;;;4226006;27;20081;-59
2022/02/18 06:15:22;;;;;;;11.70;2.67;;;15.90;65.30;;;;;;4226201;28;20101;-59
2022/02/18 06:17:44;;;;;;;10.68;3.10;;;15.90;65.30;;;;;;4225858;27;20134;-59
2022/02/18 06:20:09;;;;;;;9.52;2.50;;;15.90;65.30;;;;;;4223495;28;20505;-59
2022/02/18 06:22:32;;;;;;;11.35;2.65;;;15.90;65.50;;;;;;4208857;28;20526;-59
2022/02/18 06:24:56;;;;;;;11.25;2.88;;;15.90;66.40;;;;;;4192736;28;20037;-59
2022/02/18 06:27:18;;;;;;;11.35;2.78;;;16.00;65.30;;;;;;4192368;28;20052;-59
2022/02/18 06:29:40;;;;;;;9.30;2.70;;;16.10;65.00;;;;;;4192627;28;20056;-59
2022/02/18 06:32:03;;;;;;;14.77;2.97;;;16.10;64.80;;;;;;4193573;28;20048;-60
2022/02/18 06:34:25;;;;;;;10.20;3.42;;;16.10;64.50;;;;;;4225755;28;20052;-59
2022/02/18 06:36:51;;;;;;;10.65;2.67;;;16.10;63.50;;;;;;4226195;28;20043;-59
2022/02/18 06:39:13;;;;;;;13.32;3.15;;;16.10;64.50;;;;;;4225508;28;20047;-59
2022/02/18 06:41:35;;;;;;;12.20;2.88;;;16.00;64.60;;;;;;4225691;27;20051;-59
2022/02/18 06:43:59;;;;;;;9.45;2.92;;;16.00;64.90;;;;;;4208939;28;20048;-60
2022/02/18 06:46:22;;;;;;;14.40;3.25;;;16.00;65.10;;;;;;4203945;28;20455;-60
2022/02/18 06:48:44;;;;;;;9.35;2.65;;;16.00;65.20;;;;;;4192231;28;20127;-59
2022/02/18 06:51:07;;;;;;;10.50;2.92;;;16.00;65.30;;;;;;4193681;28;20143;-58
2022/02/18 06:53:31;;;;;;;13.23;2.97;;;16.00;65.50;;;;;;4197113;28;20063;-59
2022/02/18 06:55:52;;;;;;;10.98;2.83;;;16.00;65.50;;;;;;4195780;28;20060;-59
2022/02/18 06:58:14;;;;;;;9.27;3.38;;;16.00;65.50;;;;;;4195573;28;20106;-59
2022/02/18 07:00:37;;;;;;;11.35;2.58;;;16.00;65.50;;;;;;4200198;28;20051;-59
2022/02/18 07:03:00;;;;;;;9.82;2.85;;;16.00;65.30;;;;;;4229018;27;20043;-58
2022/02/18 07:05:23;;;;;;;10.27;3.03;;;16.00;65.40;;;;;;4229071;27;20383;-51
2022/02/18 07:07:45;;;;;;;13.45;2.58;;;16.00;65.80;;;;;;4189086;28;20139;-59
2022/02/18 07:10:11;;;;;;;10.13;3.10;;;16.00;66.10;;;;;;4200029;28;20057;-59
2022/02/18 07:12:33;;;;;;;12.65;3.53;;;16.10;66.20;;;;;;4194932;28;20102;-59
2022/02/18 07:14:56;;;;;;;9.75;3.35;;;16.20;66.10;;;;;;4193986;28;20052;-59
2022/02/18 07:17:20;;;;;;;11.68;3.17;;;16.20;65.80;;;;;;4195352;28;20056;-58
2022/02/18 07:19:43;;;;;;;8.20;3.08;;;16.30;65.70;;;;;;4210318;28;20109;-59
2022/02/18 07:22:05;;;;;;;11.80;3.20;;;16.40;65.30;;;;;;4204857;28;20039;-59
2022/02/18 07:24:27;;;;;;;13.68;3.75;;;16.40;65.10;;;;;;4204362;28;20055;-59
2022/02/18 07:26:51;;;;;;;12.80;4.18;;;16.40;64.80;;;;;;4211991;28;20119;-58
2022/02/18 07:29:13;;;;;;;12.95;3.53;;;16.40;64.80;;;;;;4211907;28;20048;-59
2022/02/18 07:31:36;;;;;;;11.52;3.70;;;16.40;64.70;;;;;;4211756;28;20071;-59
2022/02/18 07:33:58;;;;;;;9.93;3.92;;;16.40;64.80;;;;;;4211832;28;20130;-59
2022/02/18 07:36:20;;;;;;;12.63;4.10;;;16.30;65.00;;;;;;4215925;28;20040;-59
2022/02/18 07:38:43;;;;;;;12.27;4.32;;;16.30;65.20;;;;;;4211937;28;20060;-60
2022/02/18 07:41:05;;;;;;;14.00;5.47;;;16.20;65.20;;;;;;4211662;28;20352;-59
2022/02/18 07:43:28;;;;;;;16.17;5.40;;;16.20;66.50;;;;;;4211594;28;20432;-59
2022/02/18 07:46:02;;;;;;;17.10;5.00;;;16.10;66.60;;;;;;4211412;28;20051;-59
2022/02/18 07:48:24;;;;;;;14.25;4.95;;;16.10;65.70;;;;;;4211530;28;20052;-59
2022/02/18 07:50:46;;;;;;;21.35;5.18;;;16.10;65.60;;;;;;4211516;28;20125;-60
2022/02/18 07:53:08;;;;;;;20.40;5.05;;;16.10;65.50;;;;;;4211091;28;20097;-59
2022/02/18 07:55:33;;;;;;;16.27;5.70;;;16.10;65.50;;;;;;4211245;28;20051;-59
2022/02/18 07:57:55;;;;;;;14.65;4.85;;;16.00;65.90;;;;;;4211544;28;20048;-59
2022/02/18 08:00:19;;;;;;;16.00;5.88;;;16.00;66.00;;;;;;4211260;28;20483;-59
2022/02/18 08:02:41;;;;;;;13.00;4.97;;;16.00;65.80;;;;;;4209319;28;20062;-58
2022/02/18 08:05:03;;;;;;;16.25;5.18;;;16.10;65.90;;;;;;4207375;28;20391;-59
2022/02/18 08:07:25;;;;;;;13.85;4.95;;;16.10;65.70;;;;;;4207709;28;20052;-59
2022/02/18 08:09:48;;;;;;;19.00;6.07;;;16.10;65.70;;;;;;4208100;28;20052;-59
2022/02/18 08:12:10;;;;;;;16.45;4.68;;;16.20;65.70;;;;;;4208811;28;20051;-59
2022/02/18 08:14:32;;;;;;;17.10;4.85;;;16.10;65.60;;;;;;4208483;28;20121;-59
2022/02/18 08:16:56;;;;;;;15.18;4.97;;;16.10;65.60;;;;;;4208216;28;20121;-60
2022/02/18 08:19:20;;;;;;;19.75;4.88;;;16.10;65.90;;;;;;4208785;28;20986;-59
2022/02/18 08:21:42;;;;;;;16.65;6.00;;;16.00;66.10;;;;;;4208820;28;20047;-59
2022/02/18 08:24:04;;;;;;;14.48;5.55;;;16.00;66.10;;;;;;4208842;28;20056;-59
2022/02/18 08:26:28;;;;;;;15.00;5.03;;;15.90;66.30;;;;;;4208569;28;20058;-59
2022/02/18 08:28:51;;;;;;;16.63;5.00;;;15.90;66.40;;;;;;4208299;28;20067;-60
2022/02/18 08:31:14;;;;;;;17.92;4.53;;;15.90;66.50;;;;;;4208462;28;20097;-59
2022/02/18 08:33:37;;;;;;;19.00;4.82;;;15.80;66.50;;;;;;4207995;28;20048;-59
2022/02/18 08:36:00;;;;;;;11.77;4.05;;;15.80;66.80;;;;;;4207173;28;20059;-59
2022/02/18 08:38:22;;;;;;;13.38;4.47;;;15.90;67.00;;;;;;4208152;28;20111;-59
2022/02/18 08:40:45;;;;;;;17.52;4.50;;;15.80;66.80;;;;;;4207868;28;20048;-59
2022/02/18 08:43:07;;;;;;;10.88;3.97;;;15.90;66.80;;;;;;4208092;28;20058;-59
2022/02/18 08:45:30;;;;;;;18.80;4.80;;;15.80;66.80;;;;;;4208217;28;20055;-59
2022/02/18 08:47:52;;;;;;;17.88;5.15;;;15.90;66.90;;;;;;4207803;28;20052;-59
2022/02/18 08:50:16;;;;;;;15.82;4.15;;;15.80;66.20;;;;;;4208354;27;20143;-59
2022/02/18 08:52:39;;;;;;;16.67;4.55;;;15.80;67.10;;;;;;4207990;28;20063;-60
2022/02/18 08:55:02;;;;;;;14.93;4.25;;;15.80;67.10;;;;;;4208085;28;20052;-60
2022/02/18 08:57:24;;;;;;;17.30;4.70;;;15.80;67.20;;;;;;4208021;28;20052;-59
2022/02/18 08:59:47;;;;;;;14.80;3.95;;;15.80;67.10;;;;;;4208042;28;20052;-59
2022/02/18 09:02:10;;;;;;;14.02;3.75;;;15.80;67.20;;;;;;4207601;28;20056;-59
2022/02/18 09:04:32;;;;;;;13.77;4.22;;;15.90;67.20;;;;;;4208095;28;20056;-60
2022/02/18 09:06:56;;;;;;;17.92;4.60;;;15.80;67.30;;;;;;4206399;28;20081;-60
2022/02/18 09:09:18;;;;;;;13.18;4.00;;;15.80;67.10;;;;;;4207740;28;20055;-59
2022/02/18 09:11:40;;;;;;;17.33;4.07;;;15.80;67.20;;;;;;4207614;28;20054;-60
2022/02/18 09:14:03;;;;;;;11.15;4.00;;;15.80;67.40;;;;;;4207625;28;20473;-59
2022/02/18 09:16:25;;;;;;;13.48;4.65;;;15.80;67.70;;;;;;4205273;28;20048;-59
2022/02/18 09:18:54;;;;;;;9.85;4.18;;;15.70;67.60;;;;;;4206873;28;20098;-58
2022/02/18 09:21:17;;;;;;;13.05;4.00;;;15.70;67.70;;;;;;4207082;28;20075;-60
2022/02/18 09:23:53;;;;;;;8.85;3.90;;;15.70;67.90;;;;;;4207563;28;20058;-59
2022/02/18 09:26:15;;;;;;;10.40;4.05;;;15.70;68.10;;;;;;4205885;28;20127;-59
2022/02/18 09:28:37;;;;;;;9.23;3.25;;;15.60;68.10;;;;;;4207574;28;20056;-60
2022/02/18 09:30:59;;;;;;;11.80;3.85;;;15.60;68.50;;;;;;4206916;28;20536;-61
2022/02/18 09:33:21;;;;;;;6.70;3.08;;;15.70;68.60;;;;;;4207459;28;20055;-60
2022/02/18 09:35:44;;;;;;;11.02;4.28;;;15.70;68.50;;;;;;4207217;28;20048;-60
2022/02/18 09:38:07;;;;;;;6.70;3.25;;;15.70;68.30;;;;;;4207207;28;20079;-60
2022/02/18 09:40:30;;;;;;;6.43;2.72;;;15.70;68.30;;;;;;4207433;28;20047;-60
2022/02/18 09:42:55;;;;;;;9.43;3.20;;;15.70;68.40;;;;;;4207704;28;20487;-59
2022/02/18 09:45:18;;;;;;;6.65;2.92;;;15.70;69.20;;;;;;4206941;28;20052;-59
2022/02/18 09:47:42;;;;;;;6.70;2.92;;;15.70;68.50;;;;;;4207293;28;20511;-59
2022/02/18 09:50:06;;;;;;;8.50;3.13;;;15.70;68.60;;;;;;4205445;28;20051;-60
2022/02/18 09:52:28;;;;;;;5.35;2.58;;;15.60;68.70;;;;;;4205492;28;20541;-60
2022/02/18 09:54:50;;;;;;;5.53;2.72;;;15.60;68.90;;;;;;4206948;28;20047;-60
2022/02/18 09:57:16;;;;;;;5.43;3.15;;;15.60;69.00;;;;;;4206969;28;20059;-59
2022/02/18 09:59:39;;;;;;;6.88;2.42;;;15.50;70.00;;;;;;4205874;28;20479;-59
2022/02/18 10:02:03;;;;;;;6.80;2.97;;;15.60;69.20;;;;;;4207074;28;20570;-60
2022/02/18 10:04:26;;;;;;;5.85;2.40;;;15.60;69.30;;;;;;4206956;28;20051;-59
2022/02/18 10:06:48;;;;;;;6.47;2.42;;;15.60;69.30;;;;;;4206799;28;20127;-60
2022/02/18 10:09:11;;;;;;;6.60;2.45;;;15.60;69.20;;;;;;4207056;28;20056;-60
2022/02/18 10:11:52;;;;;;;4.35;2.20;;;15.50;69.20;;;;;;4206676;28;20050;-60
2022/02/18 10:14:15;;;;;;;3.55;2.17;;;15.60;69.30;;;;;;4207116;28;20043;-60
2022/02/18 10:16:38;;;;;;;3.97;1.55;;;15.60;69.30;;;;;;4206774;28;20052;-60
2022/02/18 10:19:01;;;;;;;5.93;2.20;;;15.50;69.30;;;;;;4207076;28;20055;-60
2022/02/18 10:21:26;;;;;;;3.47;1.70;;;15.50;69.50;;;;;;4206711;28;20070;-60
2022/02/18 10:23:48;;;;;;;5.22;1.65;;;15.50;69.70;;;;;;4206805;28;20138;-60
2022/02/18 10:26:11;;;;;;;2.35;1.77;;;15.50;69.70;;;;;;4206212;28;20079;-60
2022/02/18 10:28:33;;;;;;;3.78;1.70;;;15.50;69.70;;;;;;4206575;28;20143;-59
2022/02/18 10:31:08;;;;;;;6.32;2.30;;;15.50;69.80;;;;;;4206374;28;20052;-59
2022/02/18 10:33:33;;;;;;;3.67;1.70;;;15.50;70.00;;;;;;4206414;28;20051;-59
2022/02/18 10:36:01;;;;;;;2.15;1.73;;;15.50;70.20;;;;;;4206642;28;20052;-60
2022/02/18 10:38:31;;;;;;;5.07;1.95;;;15.50;70.50;;;;;;4207242;28;20083;-59
2022/02/18 10:40:59;;;;;;;2.90;1.58;;;15.60;70.50;;;;;;4206275;28;20151;-59
2022/02/18 10:43:25;;;;;;;4.78;1.63;;;15.70;70.10;;;;;;4206258;28;20052;-60
2022/02/18 10:45:59;;;;;;;4.88;1.80;;;15.80;69.90;;;;;;4205404;28;20059;-59
2022/02/18 10:48:25;;;;;;;4.65;1.92;;;15.80;69.70;;;;;;4206389;28;20955;-59
2022/02/18 10:51:08;;;;;;;5.15;2.05;;;15.90;69.60;;;;;;4206073;28;20766;-61
2022/02/18 10:53:36;;;;;;;5.38;2.17;;;15.90;69.60;;;;;;4206271;28;20473;-59
2022/02/18 10:56:04;;;;;;;3.60;1.25;;;15.90;69.50;;;;;;4206102;28;20472;-59
2022/02/18 10:58:28;;;;;;;5.70;2.30;;;15.90;69.50;;;;;;4206583;28;20054;-59
2022/02/18 11:01:04;;;;;;;5.70;1.83;;;15.90;69.60;;;;;;4206835;28;20043;-60
2022/02/18 11:03:28;;;;;;;8.93;1.85;;;15.90;69.80;;;;;;4205800;28;20093;-60
2022/02/18 11:05:50;;;;;;;3.08;1.75;;;15.90;70.00;;;;;;4206587;28;20056;-59
2022/02/18 11:08:12;;;;;;;4.93;1.98;;;15.90;70.10;;;;;;4205602;28;20044;-58
2022/02/18 11:10:35;;;;;;;6.68;2.13;;;15.80;70.30;;;;;;4206666;28;20048;-60
2022/02/18 11:12:58;;;;;;;3.58;2.00;;;15.80;70.30;;;;;;4207053;28;20113;-60
2022/02/18 11:15:21;;;;;;;4.28;2.10;;;15.80;70.60;;;;;;4202643;27;20067;-60
2022/02/18 11:17:43;;;;;;;5.15;1.50;;;15.80;70.70;;;;;;4205995;28;20051;-60
2022/02/18 11:20:12;;;;;;;4.10;1.98;;;15.90;70.70;;;;;;4204765;28;20040;-59
2022/02/18 11:22:35;;;;;;;4.00;2.10;;;15.90;70.60;;;;;;4205950;28;20074;-60
2022/02/18 11:24:57;;;;;;;3.88;1.63;;;15.90;70.60;;;;;;4206001;28;20098;-59
2022/02/18 11:27:20;;;;;;;4.05;1.90;;;16.00;70.60;;;;;;4206306;28;20043;-60
2022/02/18 11:29:43;;;;;;;5.13;2.22;;;16.00;70.60;;;;;;4204367;28;20055;-59
2022/02/18 11:32:18;;;;;;;3.63;2.00;;;16.10;70.40;;;;;;4197581;27;20040;-59
2022/02/18 11:35:00;;;;;;;2.45;1.67;;;16.10;70.30;;;;;;4205591;28;20168;-60
2022/02/18 11:38:03;;;;;;;4.03;1.30;;;16.10;70.30;;;;;;4206896;28;20135;-60
2022/02/18 11:40:50;;;;;;;2.33;1.80;;;16.10;70.30;;;;;;4191549;28;20048;-59
2022/02/18 11:43:27;;;;;;;4.18;2.22;;;16.00;70.50;;;;;;4206358;28;20143;-59
2022/02/18 11:45:57;;;;;;;4.90;2.03;;;16.00;70.70;;;;;;4208387;28;20048;-60
2022/02/18 11:48:39;;;;;;;2.17;1.33;;;15.90;70.80;;;;;;4192431;28;20404;-58
2022/02/18 11:51:09;;;;;;;3.38;1.80;;;15.90;71.10;;;;;;4191764;28;20488;-59
2022/02/18 11:53:40;;;;;;;4.63;1.63;;;15.80;71.20;;;;;;4191556;28;20566;-60
2022/02/18 11:56:03;;;;;;;2.80;1.75;;;15.80;71.40;;;;;;4192403;28;20119;-59
2022/02/18 11:58:25;;;;;;;1.70;1.58;;;15.80;71.50;;;;;;4192244;28;20863;-59
2022/02/18 12:00:49;;;;;;;4.18;1.90;;;15.80;72.60;;;;;;4191604;28;20056;-59
2022/02/18 12:03:13;;;;;;;4.32;1.88;;;15.80;71.80;;;;;;4191680;28;20507;-59
2022/02/18 12:05:36;;;;;;;3.33;1.75;;;15.80;71.90;;;;;;4191988;28;20048;-58
2022/02/18 12:08:00;;;;;;;2.33;1.25;;;15.90;71.90;;;;;;4191940;28;20795;-59
2022/02/18 12:10:27;;;;;;;3.05;1.67;;;15.90;71.90;;;;;;4191940;28;20479;-58
2022/02/18 12:12:50;;;;;;;3.35;1.88;;;15.90;71.70;;;;;;4191557;28;20072;-59
2022/02/18 12:15:19;;;;;;;3.00;1.33;;;16.00;71.80;;;;;;4192072;28;20102;-59
2022/02/18 12:17:44;;;;;;;2.67;1.55;;;16.00;71.60;;;;;;4191974;28;20067;-59
2022/02/18 12:20:12;;;;;;;1.48;1.35;;;16.10;71.50;;;;;;4191544;28;21464;-59
2022/02/18 12:22:37;;;;;;;4.22;1.65;;;16.20;71.20;;;;;;4178656;28;20056;-59
2022/02/18 12:25:06;;;;;;;1.80;1.30;;;16.20;71.00;;;;;;4191257;28;20048;-59
2022/02/18 12:27:37;;;;;;;2.35;1.30;;;16.20;70.80;;;;;;4175474;28;20056;-59
2022/02/18 12:30:02;;;;;;;1.80;1.27;;;16.20;70.90;;;;;;4182439;28;20055;-58